sensor_id;sensor_type;location;lat;lon;timestamp;P1;durP1;ratioP1;P2;durP2;ratioP2
10144;SDS011;5113;41.822;23.564;2022-11-20T00:00:12;2.30;;;2.10;;
10144;SDS011;5113;41.822;23.564;2022-11-20T00:03:18;2.67;;;2.23;;
10144;SDS011;5113;41.822;23.564;2022-11-20T00:06:25;2.73;;;1.93;;
10144;SDS011;5113;41.822;23.564;2022-11-20T00:09:33;2.00;;;1.90;;
10144;SDS011;5113;41.822;23.564;2022-11-20T00:12:39;3.17;;;2.00;;
10144;SDS011;5113;41.822;23.564;2022-11-20T00:15:47;5.90;;;2.07;;
10144;SDS011;5113;41.822;23.564;2022-11-20T00:18:53;2.00;;;1.80;;
10144;SDS011;5113;41.822;23.564;2022-11-20T00:22:00;1.80;;;1.70;;
10144;SDS011;5113;41.822;23.564;2022-11-20T00:25:06;2.30;;;1.60;;
10144;SDS011;5113;41.822;23.564;2022-11-20T00:28:13;3.47;;;2.10;;
10144;SDS011;5113;41.822;23.564;2022-11-20T00:31:20;5.30;;;2.10;;
10144;SDS011;5113;41.822;23.564;2022-11-20T00:34:27;2.47;;;2.00;;
10144;SDS011;5113;41.822;23.564;2022-11-20T00:37:33;3.47;;;1.77;;
10144;SDS011;5113;41.822;23.564;2022-11-20T00:40:39;2.47;;;2.20;;
10144;SDS011;5113;41.822;23.564;2022-11-20T00:43:45;3.07;;;2.00;;
10144;SDS011;5113;41.822;23.564;2022-11-20T00:46:53;1.33;;;1.33;;
10144;SDS011;5113;41.822;23.564;2022-11-20T00:49:59;3.73;;;1.93;;
10144;SDS011;5113;41.822;23.564;2022-11-20T00:53:05;1.77;;;1.67;;
10144;SDS011;5113;41.822;23.564;2022-11-20T00:56:12;3.57;;;1.67;;
10144;SDS011;5113;41.822;23.564;2022-11-20T00:59:19;7.23;;;2.00;;
10144;SDS011;5113;41.822;23.564;2022-11-20T01:02:27;1.37;;;1.30;;
10144;SDS011;5113;41.822;23.564;2022-11-20T01:05:34;2.00;;;1.90;;
10144;SDS011;5113;41.822;23.564;2022-11-20T01:08:41;1.80;;;1.70;;
10144;SDS011;5113;41.822;23.564;2022-11-20T01:11:47;1.50;;;1.43;;
10144;SDS011;5113;41.822;23.564;2022-11-20T01:14:54;1.90;;;1.80;;
10144;SDS011;5113;41.822;23.564;2022-11-20T01:18:02;1.90;;;1.80;;
10144;SDS011;5113;41.822;23.564;2022-11-20T01:21:09;2.00;;;1.77;;
10144;SDS011;5113;41.822;23.564;2022-11-20T01:24:18;2.47;;;1.80;;
10144;SDS011;5113;41.822;23.564;2022-11-20T01:27:26;1.50;;;1.50;;
10144;SDS011;5113;41.822;23.564;2022-11-20T01:30:32;1.43;;;1.33;;
10144;SDS011;5113;41.822;23.564;2022-11-20T01:33:40;3.63;;;2.37;;
10144;SDS011;5113;41.822;23.564;2022-11-20T01:36:47;3.80;;;3.03;;
10144;SDS011;5113;41.822;23.564;2022-11-20T01:39:54;2.00;;;1.90;;
10144;SDS011;5113;41.822;23.564;2022-11-20T01:43:09;1.97;;;1.87;;
10144;SDS011;5113;41.822;23.564;2022-11-20T01:46:29;2.87;;;2.27;;
10144;SDS011;5113;41.822;23.564;2022-11-20T01:49:38;1.90;;;1.80;;
10144;SDS011;5113;41.822;23.564;2022-11-20T01:52:48;1.90;;;1.83;;
10144;SDS011;5113;41.822;23.564;2022-11-20T01:55:58;1.80;;;1.80;;
10144;SDS011;5113;41.822;23.564;2022-11-20T01:59:07;1.60;;;1.50;;
10144;SDS011;5113;41.822;23.564;2022-11-20T02:02:16;1.87;;;1.70;;
10144;SDS011;5113;41.822;23.564;2022-11-20T02:05:25;1.47;;;1.47;;
10144;SDS011;5113;41.822;23.564;2022-11-20T02:08:37;1.60;;;1.60;;
10144;SDS011;5113;41.822;23.564;2022-11-20T02:11:37;1.60;;;1.50;;
10144;SDS011;5113;41.822;23.564;2022-11-20T02:14:43;3.23;;;2.07;;
10144;SDS011;5113;41.822;23.564;2022-11-20T02:17:48;1.67;;;1.67;;
10144;SDS011;5113;41.822;23.564;2022-11-20T02:21:03;1.97;;;1.50;;
10144;SDS011;5113;41.822;23.564;2022-11-20T02:24:15;1.83;;;1.73;;
10144;SDS011;5113;41.822;23.564;2022-11-20T02:27:22;1.70;;;1.60;;
10144;SDS011;5113;41.822;23.564;2022-11-20T02:30:29;1.40;;;1.40;;
10144;SDS011;5113;41.822;23.564;2022-11-20T02:33:35;6.70;;;1.80;;
10144;SDS011;5113;41.822;23.564;2022-11-20T02:36:42;1.73;;;1.63;;
10144;SDS011;5113;41.822;23.564;2022-11-20T02:39:51;2.13;;;1.87;;
10144;SDS011;5113;41.822;23.564;2022-11-20T02:42:57;1.80;;;1.70;;
10144;SDS011;5113;41.822;23.564;2022-11-20T02:46:06;1.80;;;1.70;;
10144;SDS011;5113;41.822;23.564;2022-11-20T02:49:12;1.90;;;1.80;;
10144;SDS011;5113;41.822;23.564;2022-11-20T02:52:19;6.17;;;1.73;;
10144;SDS011;5113;41.822;23.564;2022-11-20T02:55:26;3.03;;;2.27;;
10144;SDS011;5113;41.822;23.564;2022-11-20T02:58:33;4.63;;;2.37;;
10144;SDS011;5113;41.822;23.564;2022-11-20T03:01:39;3.50;;;1.93;;
10144;SDS011;5113;41.822;23.564;2022-11-20T03:04:45;1.93;;;1.90;;
10144;SDS011;5113;41.822;23.564;2022-11-20T03:07:51;1.53;;;1.50;;
10144;SDS011;5113;41.822;23.564;2022-11-20T03:11:02;1.90;;;1.80;;
10144;SDS011;5113;41.822;23.564;2022-11-20T03:14:10;3.03;;;1.63;;
10144;SDS011;5113;41.822;23.564;2022-11-20T03:17:16;2.40;;;1.60;;
10144;SDS011;5113;41.822;23.564;2022-11-20T03:20:23;1.60;;;1.50;;
10144;SDS011;5113;41.822;23.564;2022-11-20T03:23:29;1.83;;;1.73;;
10144;SDS011;5113;41.822;23.564;2022-11-20T03:26:38;2.60;;;1.90;;
10144;SDS011;5113;41.822;23.564;2022-11-20T03:29:45;1.70;;;1.70;;
10144;SDS011;5113;41.822;23.564;2022-11-20T03:32:52;3.63;;;2.23;;
10144;SDS011;5113;41.822;23.564;2022-11-20T03:36:00;1.83;;;1.73;;
10144;SDS011;5113;41.822;23.564;2022-11-20T03:39:08;2.97;;;1.53;;
10144;SDS011;5113;41.822;23.564;2022-11-20T03:42:16;2.33;;;2.13;;
10144;SDS011;5113;41.822;23.564;2022-11-20T03:45:39;3.07;;;2.73;;
10144;SDS011;5113;41.822;23.564;2022-11-20T03:48:45;13.73;;;4.17;;
10144;SDS011;5113;41.822;23.564;2022-11-20T03:51:55;4.57;;;2.20;;
10144;SDS011;5113;41.822;23.564;2022-11-20T03:55:01;2.33;;;2.13;;
10144;SDS011;5113;41.822;23.564;2022-11-20T03:58:09;2.57;;;1.80;;
10144;SDS011;5113;41.822;23.564;2022-11-20T04:01:18;2.73;;;2.53;;
10144;SDS011;5113;41.822;23.564;2022-11-20T04:04:26;4.53;;;2.73;;
10144;SDS011;5113;41.822;23.564;2022-11-20T04:07:33;10.23;;;3.70;;
10144;SDS011;5113;41.822;23.564;2022-11-20T04:10:40;2.30;;;2.10;;
10144;SDS011;5113;41.822;23.564;2022-11-20T04:13:48;1.97;;;1.93;;
10144;SDS011;5113;41.822;23.564;2022-11-20T04:16:56;2.83;;;2.40;;
10144;SDS011;5113;41.822;23.564;2022-11-20T04:20:03;2.20;;;2.10;;
10144;SDS011;5113;41.822;23.564;2022-11-20T04:23:10;6.43;;;4.37;;
10144;SDS011;5113;41.822;23.564;2022-11-20T04:26:16;9.90;;;9.00;;
10144;SDS011;5113;41.822;23.564;2022-11-20T04:29:23;2.63;;;2.53;;
10144;SDS011;5113;41.822;23.564;2022-11-20T04:32:29;7.50;;;5.57;;
10144;SDS011;5113;41.822;23.564;2022-11-20T04:35:35;2.67;;;2.57;;
10144;SDS011;5113;41.822;23.564;2022-11-20T04:38:42;5.83;;;3.20;;
10144;SDS011;5113;41.822;23.564;2022-11-20T04:41:49;4.40;;;3.53;;
10144;SDS011;5113;41.822;23.564;2022-11-20T04:45:17;4.13;;;3.03;;
10144;SDS011;5113;41.822;23.564;2022-11-20T04:48:23;5.83;;;3.97;;
10144;SDS011;5113;41.822;23.564;2022-11-20T04:51:31;5.40;;;4.97;;
10144;SDS011;5113;41.822;23.564;2022-11-20T04:54:37;3.73;;;3.50;;
10144;SDS011;5113;41.822;23.564;2022-11-20T04:57:43;2.30;;;2.20;;
10144;SDS011;5113;41.822;23.564;2022-11-20T05:00:51;3.33;;;2.27;;
10144;SDS011;5113;41.822;23.564;2022-11-20T05:03:57;3.53;;;2.93;;
10144;SDS011;5113;41.822;23.564;2022-11-20T05:07:03;3.80;;;2.27;;
10144;SDS011;5113;41.822;23.564;2022-11-20T05:10:09;3.63;;;2.17;;
10144;SDS011;5113;41.822;23.564;2022-11-20T05:13:16;2.10;;;1.90;;
10144;SDS011;5113;41.822;23.564;2022-11-20T05:16:24;2.27;;;2.17;;
10144;SDS011;5113;41.822;23.564;2022-11-20T05:19:31;6.13;;;3.00;;
10144;SDS011;5113;41.822;23.564;2022-11-20T05:22:37;3.33;;;3.03;;
10144;SDS011;5113;41.822;23.564;2022-11-20T05:25:43;6.47;;;2.23;;
10144;SDS011;5113;41.822;23.564;2022-11-20T05:28:49;5.10;;;3.73;;
10144;SDS011;5113;41.822;23.564;2022-11-20T05:31:57;5.90;;;3.70;;
10144;SDS011;5113;41.822;23.564;2022-11-20T05:35:04;4.33;;;3.10;;
10144;SDS011;5113;41.822;23.564;2022-11-20T05:38:10;3.47;;;3.17;;
10144;SDS011;5113;41.822;23.564;2022-11-20T05:41:17;5.53;;;3.73;;
10144;SDS011;5113;41.822;23.564;2022-11-20T05:44:25;2.33;;;2.23;;
10144;SDS011;5113;41.822;23.564;2022-11-20T05:47:33;4.60;;;3.30;;
10144;SDS011;5113;41.822;23.564;2022-11-20T05:50:40;5.73;;;3.83;;
10144;SDS011;5113;41.822;23.564;2022-11-20T05:53:46;7.60;;;6.97;;
10144;SDS011;5113;41.822;23.564;2022-11-20T05:56:52;2.27;;;2.17;;
10144;SDS011;5113;41.822;23.564;2022-11-20T05:59:58;4.57;;;2.67;;
10144;SDS011;5113;41.822;23.564;2022-11-20T06:03:06;5.77;;;2.60;;
10144;SDS011;5113;41.822;23.564;2022-11-20T06:06:13;3.13;;;2.87;;
10144;SDS011;5113;41.822;23.564;2022-11-20T06:09:20;6.23;;;3.80;;
10144;SDS011;5113;41.822;23.564;2022-11-20T06:12:26;4.63;;;4.20;;
10144;SDS011;5113;41.822;23.564;2022-11-20T06:15:32;7.33;;;3.33;;
10144;SDS011;5113;41.822;23.564;2022-11-20T06:18:40;2.40;;;2.20;;
10144;SDS011;5113;41.822;23.564;2022-11-20T06:21:47;3.77;;;3.40;;
10144;SDS011;5113;41.822;23.564;2022-11-20T06:24:53;2.67;;;2.47;;
10144;SDS011;5113;41.822;23.564;2022-11-20T06:27:59;3.13;;;2.83;;
10144;SDS011;5113;41.822;23.564;2022-11-20T06:31:06;4.37;;;3.20;;
10144;SDS011;5113;41.822;23.564;2022-11-20T06:34:14;3.63;;;2.77;;
10144;SDS011;5113;41.822;23.564;2022-11-20T06:37:20;4.63;;;2.40;;
10144;SDS011;5113;41.822;23.564;2022-11-20T06:40:27;3.53;;;2.60;;
10144;SDS011;5113;41.822;23.564;2022-11-20T06:43:33;3.27;;;2.93;;
10144;SDS011;5113;41.822;23.564;2022-11-20T06:46:39;4.67;;;3.67;;
10144;SDS011;5113;41.822;23.564;2022-11-20T06:49:46;3.40;;;2.23;;
10144;SDS011;5113;41.822;23.564;2022-11-20T06:52:52;5.03;;;3.93;;
10144;SDS011;5113;41.822;23.564;2022-11-20T06:55:58;4.90;;;4.50;;
10144;SDS011;5113;41.822;23.564;2022-11-20T06:59:04;3.10;;;2.83;;
10144;SDS011;5113;41.822;23.564;2022-11-20T07:02:11;4.00;;;3.40;;
10144;SDS011;5113;41.822;23.564;2022-11-20T07:05:18;6.33;;;3.83;;
10144;SDS011;5113;41.822;23.564;2022-11-20T07:08:25;4.00;;;3.57;;
10144;SDS011;5113;41.822;23.564;2022-11-20T07:11:31;11.60;;;5.37;;
10144;SDS011;5113;41.822;23.564;2022-11-20T07:14:37;13.23;;;7.47;;
10144;SDS011;5113;41.822;23.564;2022-11-20T07:17:43;6.20;;;5.57;;
10144;SDS011;5113;41.822;23.564;2022-11-20T07:20:51;6.10;;;5.07;;
10144;SDS011;5113;41.822;23.564;2022-11-20T07:23:57;4.97;;;3.93;;
10144;SDS011;5113;41.822;23.564;2022-11-20T07:27:04;8.60;;;3.70;;
10144;SDS011;5113;41.822;23.564;2022-11-20T07:30:11;5.77;;;4.57;;
10144;SDS011;5113;41.822;23.564;2022-11-20T07:33:18;4.27;;;3.90;;
10144;SDS011;5113;41.822;23.564;2022-11-20T07:36:27;5.90;;;3.67;;
10144;SDS011;5113;41.822;23.564;2022-11-20T07:39:33;8.73;;;3.80;;
10144;SDS011;5113;41.822;23.564;2022-11-20T07:42:46;9.17;;;4.00;;
10144;SDS011;5113;41.822;23.564;2022-11-20T07:45:54;7.43;;;3.93;;
10144;SDS011;5113;41.822;23.564;2022-11-20T07:49:01;5.93;;;3.40;;
10144;SDS011;5113;41.822;23.564;2022-11-20T07:52:08;5.67;;;5.10;;
10144;SDS011;5113;41.822;23.564;2022-11-20T07:55:15;8.27;;;3.73;;
10144;SDS011;5113;41.822;23.564;2022-11-20T07:58:21;7.30;;;3.13;;
10144;SDS011;5113;41.822;23.564;2022-11-20T08:01:28;4.23;;;3.67;;
10144;SDS011;5113;41.822;23.564;2022-11-20T08:04:34;8.43;;;5.67;;
10144;SDS011;5113;41.822;23.564;2022-11-20T08:07:41;15.67;;;8.43;;
10144;SDS011;5113;41.822;23.564;2022-11-20T08:10:48;9.00;;;5.90;;
10144;SDS011;5113;41.822;23.564;2022-11-20T08:13:55;10.73;;;5.53;;
10144;SDS011;5113;41.822;23.564;2022-11-20T08:17:18;8.90;;;5.33;;
10144;SDS011;5113;41.822;23.564;2022-11-20T08:20:25;8.03;;;4.83;;
10144;SDS011;5113;41.822;23.564;2022-11-20T08:23:32;10.77;;;5.90;;
10144;SDS011;5113;41.822;23.564;2022-11-20T08:26:39;3.07;;;2.87;;
10144;SDS011;5113;41.822;23.564;2022-11-20T08:29:46;9.97;;;4.13;;
10144;SDS011;5113;41.822;23.564;2022-11-20T08:32:52;4.90;;;3.87;;
10144;SDS011;5113;41.822;23.564;2022-11-20T08:35:59;5.13;;;4.67;;
10144;SDS011;5113;41.822;23.564;2022-11-20T08:39:07;4.90;;;4.10;;
10144;SDS011;5113;41.822;23.564;2022-11-20T08:42:16;12.63;;;4.63;;
10144;SDS011;5113;41.822;23.564;2022-11-20T08:45:23;6.30;;;3.17;;
10144;SDS011;5113;41.822;23.564;2022-11-20T08:48:37;7.97;;;4.30;;
10144;SDS011;5113;41.822;23.564;2022-11-20T08:51:43;5.90;;;4.00;;
10144;SDS011;5113;41.822;23.564;2022-11-20T08:54:50;10.07;;;3.93;;
10144;SDS011;5113;41.822;23.564;2022-11-20T08:57:57;10.97;;;5.53;;
10144;SDS011;5113;41.822;23.564;2022-11-20T09:01:04;4.37;;;3.87;;
10144;SDS011;5113;41.822;23.564;2022-11-20T09:04:11;9.53;;;2.77;;
10144;SDS011;5113;41.822;23.564;2022-11-20T09:07:18;7.60;;;3.97;;
10144;SDS011;5113;41.822;23.564;2022-11-20T09:10:27;7.30;;;3.33;;
10144;SDS011;5113;41.822;23.564;2022-11-20T09:13:34;18.33;;;3.97;;
10144;SDS011;5113;41.822;23.564;2022-11-20T09:16:41;3.70;;;3.40;;
10144;SDS011;5113;41.822;23.564;2022-11-20T09:19:48;10.40;;;3.70;;
10144;SDS011;5113;41.822;23.564;2022-11-20T09:22:54;3.87;;;3.10;;
10144;SDS011;5113;41.822;23.564;2022-11-20T09:26:03;11.97;;;4.00;;
10144;SDS011;5113;41.822;23.564;2022-11-20T09:29:09;11.50;;;3.70;;
10144;SDS011;5113;41.822;23.564;2022-11-20T09:32:16;6.00;;;4.80;;
10144;SDS011;5113;41.822;23.564;2022-11-20T09:35:23;5.23;;;4.77;;
10144;SDS011;5113;41.822;23.564;2022-11-20T09:38:29;6.57;;;3.63;;
10144;SDS011;5113;41.822;23.564;2022-11-20T09:41:39;6.83;;;3.00;;
10144;SDS011;5113;41.822;23.564;2022-11-20T09:45:02;4.17;;;2.60;;
10144;SDS011;5113;41.822;23.564;2022-11-20T09:48:24;10.53;;;6.83;;
10144;SDS011;5113;41.822;23.564;2022-11-20T09:51:42;9.50;;;5.50;;
10144;SDS011;5113;41.822;23.564;2022-11-20T09:54:56;15.73;;;5.77;;
10144;SDS011;5113;41.822;23.564;2022-11-20T09:58:06;7.97;;;4.47;;
10144;SDS011;5113;41.822;23.564;2022-11-20T10:01:18;11.03;;;4.77;;
10144;SDS011;5113;41.822;23.564;2022-11-20T10:04:27;6.73;;;3.90;;
10144;SDS011;5113;41.822;23.564;2022-11-20T10:07:41;9.00;;;4.30;;
10144;SDS011;5113;41.822;23.564;2022-11-20T10:10:54;4.33;;;3.67;;
10144;SDS011;5113;41.822;23.564;2022-11-20T10:14:11;11.03;;;4.57;;
10144;SDS011;5113;41.822;23.564;2022-11-20T10:17:30;8.40;;;4.00;;
10144;SDS011;5113;41.822;23.564;2022-11-20T10:20:54;4.10;;;3.20;;
10144;SDS011;5113;41.822;23.564;2022-11-20T10:24:23;5.67;;;4.83;;
10144;SDS011;5113;41.822;23.564;2022-11-20T10:27:56;9.37;;;4.97;;
10144;SDS011;5113;41.822;23.564;2022-11-20T10:31:26;4.33;;;3.67;;
10144;SDS011;5113;41.822;23.564;2022-11-20T10:34:39;8.33;;;4.20;;
10144;SDS011;5113;41.822;23.564;2022-11-20T10:37:55;4.83;;;4.00;;
10144;SDS011;5113;41.822;23.564;2022-11-20T10:41:05;5.23;;;3.40;;
10144;SDS011;5113;41.822;23.564;2022-11-20T10:44:33;11.77;;;3.93;;
10144;SDS011;5113;41.822;23.564;2022-11-20T10:48:07;6.97;;;4.07;;
10144;SDS011;5113;41.822;23.564;2022-11-20T10:51:21;5.70;;;4.40;;
10144;SDS011;5113;41.822;23.564;2022-11-20T10:54:39;5.33;;;3.23;;
10144;SDS011;5113;41.822;23.564;2022-11-20T10:57:53;4.60;;;3.63;;
10144;SDS011;5113;41.822;23.564;2022-11-20T11:01:11;6.03;;;3.47;;
10144;SDS011;5113;41.822;23.564;2022-11-20T11:04:28;7.73;;;3.70;;
10144;SDS011;5113;41.822;23.564;2022-11-20T11:07:41;7.93;;;4.13;;
10144;SDS011;5113;41.822;23.564;2022-11-20T11:10:49;9.17;;;4.13;;
10144;SDS011;5113;41.822;23.564;2022-11-20T11:14:04;7.20;;;3.20;;
10144;SDS011;5113;41.822;23.564;2022-11-20T11:17:25;8.97;;;4.67;;
10144;SDS011;5113;41.822;23.564;2022-11-20T11:20:35;7.03;;;4.20;;
10144;SDS011;5113;41.822;23.564;2022-11-20T11:23:42;12.30;;;5.73;;
10144;SDS011;5113;41.822;23.564;2022-11-20T11:26:52;8.67;;;3.43;;
10144;SDS011;5113;41.822;23.564;2022-11-20T11:30:12;17.07;;;4.70;;
10144;SDS011;5113;41.822;23.564;2022-11-20T11:33:21;8.57;;;4.50;;
10144;SDS011;5113;41.822;23.564;2022-11-20T11:36:30;10.73;;;3.20;;
10144;SDS011;5113;41.822;23.564;2022-11-20T11:39:38;8.07;;;4.20;;
10144;SDS011;5113;41.822;23.564;2022-11-20T11:42:50;8.03;;;3.83;;
10144;SDS011;5113;41.822;23.564;2022-11-20T11:46:00;10.73;;;4.83;;
10144;SDS011;5113;41.822;23.564;2022-11-20T11:49:14;6.73;;;3.40;;
10144;SDS011;5113;41.822;23.564;2022-11-20T11:52:24;7.17;;;2.90;;
10144;SDS011;5113;41.822;23.564;2022-11-20T11:55:34;5.70;;;3.73;;
10144;SDS011;5113;41.822;23.564;2022-11-20T11:58:43;7.67;;;4.53;;
10144;SDS011;5113;41.822;23.564;2022-11-20T12:01:53;16.63;;;4.77;;
10144;SDS011;5113;41.822;23.564;2022-11-20T12:05:06;8.20;;;4.80;;
10144;SDS011;5113;41.822;23.564;2022-11-20T12:08:25;9.93;;;3.50;;
10144;SDS011;5113;41.822;23.564;2022-11-20T12:11:37;8.77;;;4.63;;
10144;SDS011;5113;41.822;23.564;2022-11-20T12:14:49;5.03;;;3.10;;
10144;SDS011;5113;41.822;23.564;2022-11-20T12:18:01;11.67;;;3.60;;
10144;SDS011;5113;41.822;23.564;2022-11-20T12:21:11;30.70;;;14.17;;
10144;SDS011;5113;41.822;23.564;2022-11-20T12:28:00;20.83;;;12.60;;
10144;SDS011;5113;41.822;23.564;2022-11-20T12:31:26;20.23;;;12.07;;
10144;SDS011;5113;41.822;23.564;2022-11-20T12:34:57;27.43;;;14.47;;
10144;SDS011;5113;41.822;23.564;2022-11-20T12:38:24;19.93;;;13.00;;
10144;SDS011;5113;41.822;23.564;2022-11-20T12:41:51;19.27;;;11.70;;
10144;SDS011;5113;41.822;23.564;2022-11-20T12:45:30;28.77;;;17.40;;
10144;SDS011;5113;41.822;23.564;2022-11-20T12:49:01;18.83;;;11.17;;
10144;SDS011;5113;41.822;23.564;2022-11-20T12:52:19;15.30;;;9.77;;
10144;SDS011;5113;41.822;23.564;2022-11-20T12:55:40;12.10;;;7.37;;
10144;SDS011;5113;41.822;23.564;2022-11-20T12:58:58;31.00;;;16.10;;
10144;SDS011;5113;41.822;23.564;2022-11-20T13:02:17;25.20;;;12.07;;
10144;SDS011;5113;41.822;23.564;2022-11-20T13:05:31;30.67;;;16.87;;
10144;SDS011;5113;41.822;23.564;2022-11-20T13:08:50;51.60;;;28.33;;
10144;SDS011;5113;41.822;23.564;2022-11-20T13:12:02;42.93;;;19.53;;
10144;SDS011;5113;41.822;23.564;2022-11-20T13:15:18;26.70;;;13.03;;
10144;SDS011;5113;41.822;23.564;2022-11-20T13:18:38;22.63;;;13.20;;
10144;SDS011;5113;41.822;23.564;2022-11-20T13:21:47;12.47;;;7.13;;
10144;SDS011;5113;41.822;23.564;2022-11-20T13:24:55;8.83;;;6.27;;
10144;SDS011;5113;41.822;23.564;2022-11-20T13:28:03;25.43;;;13.50;;
10144;SDS011;5113;41.822;23.564;2022-11-20T13:31:32;23.17;;;12.10;;
10144;SDS011;5113;41.822;23.564;2022-11-20T13:34:50;33.77;;;18.17;;
10144;SDS011;5113;41.822;23.564;2022-11-20T13:38:02;50.73;;;22.57;;
10144;SDS011;5113;41.822;23.564;2022-11-20T13:41:11;21.33;;;13.20;;
10144;SDS011;5113;41.822;23.564;2022-11-20T13:44:35;39.20;;;16.93;;
10144;SDS011;5113;41.822;23.564;2022-11-20T13:47:48;21.77;;;10.17;;
10144;SDS011;5113;41.822;23.564;2022-11-20T13:51:14;23.60;;;15.33;;
10144;SDS011;5113;41.822;23.564;2022-11-20T14:01:41;17.17;;;8.83;;
10144;SDS011;5113;41.822;23.564;2022-11-20T14:04:52;13.70;;;6.50;;
10144;SDS011;5113;41.822;23.564;2022-11-20T14:08:02;13.47;;;6.90;;
10144;SDS011;5113;41.822;23.564;2022-11-20T14:11:15;9.80;;;6.90;;
10144;SDS011;5113;41.822;23.564;2022-11-20T14:14:23;14.90;;;7.00;;
10144;SDS011;5113;41.822;23.564;2022-11-20T14:17:32;10.87;;;7.57;;
10144;SDS011;5113;41.822;23.564;2022-11-20T14:20:42;7.50;;;6.63;;
10144;SDS011;5113;41.822;23.564;2022-11-20T14:23:49;7.43;;;4.00;;
10144;SDS011;5113;41.822;23.564;2022-11-20T14:26:59;7.07;;;4.87;;
10144;SDS011;5113;41.822;23.564;2022-11-20T14:30:06;9.73;;;6.30;;
10144;SDS011;5113;41.822;23.564;2022-11-20T14:33:19;8.63;;;5.23;;
10144;SDS011;5113;41.822;23.564;2022-11-20T14:36:30;5.83;;;5.33;;
10144;SDS011;5113;41.822;23.564;2022-11-20T14:39:39;6.33;;;4.07;;
10144;SDS011;5113;41.822;23.564;2022-11-20T14:42:47;8.07;;;4.67;;
10144;SDS011;5113;41.822;23.564;2022-11-20T14:45:57;9.20;;;4.67;;
10144;SDS011;5113;41.822;23.564;2022-11-20T14:49:04;4.03;;;3.13;;
10144;SDS011;5113;41.822;23.564;2022-11-20T14:52:13;12.40;;;5.53;;
10144;SDS011;5113;41.822;23.564;2022-11-20T14:55:28;9.17;;;5.30;;
10144;SDS011;5113;41.822;23.564;2022-11-20T14:58:37;15.90;;;8.37;;
10144;SDS011;5113;41.822;23.564;2022-11-20T15:01:43;13.87;;;9.70;;
10144;SDS011;5113;41.822;23.564;2022-11-20T15:05:01;19.20;;;11.27;;
10144;SDS011;5113;41.822;23.564;2022-11-20T15:08:10;17.60;;;10.23;;
10144;SDS011;5113;41.822;23.564;2022-11-20T15:11:18;17.67;;;11.73;;
10144;SDS011;5113;41.822;23.564;2022-11-20T15:14:29;19.13;;;12.33;;
10144;SDS011;5113;41.822;23.564;2022-11-20T15:17:36;24.37;;;12.90;;
10144;SDS011;5113;41.822;23.564;2022-11-20T15:20:46;11.90;;;8.33;;
10144;SDS011;5113;41.822;23.564;2022-11-20T15:23:55;9.23;;;6.67;;
10144;SDS011;5113;41.822;23.564;2022-11-20T15:27:02;9.43;;;6.70;;
10144;SDS011;5113;41.822;23.564;2022-11-20T15:30:12;20.43;;;14.83;;
10144;SDS011;5113;41.822;23.564;2022-11-20T15:33:20;17.00;;;10.90;;
10144;SDS011;5113;41.822;23.564;2022-11-20T15:36:26;16.37;;;12.63;;
10144;SDS011;5113;41.822;23.564;2022-11-20T15:39:33;9.40;;;5.13;;
10144;SDS011;5113;41.822;23.564;2022-11-20T15:42:40;25.57;;;15.00;;
10144;SDS011;5113;41.822;23.564;2022-11-20T15:46:13;21.50;;;13.97;;
10144;SDS011;5113;41.822;23.564;2022-11-20T15:49:22;16.10;;;8.03;;
10144;SDS011;5113;41.822;23.564;2022-11-20T15:52:29;13.63;;;7.87;;
10144;SDS011;5113;41.822;23.564;2022-11-20T15:55:50;34.23;;;15.57;;
10144;SDS011;5113;41.822;23.564;2022-11-20T15:58:56;13.63;;;8.10;;
10144;SDS011;5113;41.822;23.564;2022-11-20T16:02:04;49.17;;;21.90;;
10144;SDS011;5113;41.822;23.564;2022-11-20T16:05:21;11.20;;;7.23;;
10144;SDS011;5113;41.822;23.564;2022-11-20T16:08:28;8.90;;;6.40;;
10144;SDS011;5113;41.822;23.564;2022-11-20T16:11:36;9.27;;;4.93;;
10144;SDS011;5113;41.822;23.564;2022-11-20T16:14:42;6.13;;;3.83;;
10144;SDS011;5113;41.822;23.564;2022-11-20T16:18:07;8.30;;;4.20;;
10144;SDS011;5113;41.822;23.564;2022-11-20T16:21:15;8.70;;;7.40;;
10144;SDS011;5113;41.822;23.564;2022-11-20T16:24:22;17.43;;;10.67;;
10144;SDS011;5113;41.822;23.564;2022-11-20T16:27:30;31.47;;;15.63;;
10144;SDS011;5113;41.822;23.564;2022-11-20T16:30:36;21.53;;;14.67;;
10144;SDS011;5113;41.822;23.564;2022-11-20T16:33:43;21.93;;;13.40;;
10144;SDS011;5113;41.822;23.564;2022-11-20T16:36:54;14.07;;;9.63;;
10144;SDS011;5113;41.822;23.564;2022-11-20T16:40:00;15.17;;;7.03;;
10144;SDS011;5113;41.822;23.564;2022-11-20T16:43:08;14.20;;;7.93;;
10144;SDS011;5113;41.822;23.564;2022-11-20T16:46:16;10.90;;;6.20;;
10144;SDS011;5113;41.822;23.564;2022-11-20T16:49:24;8.60;;;6.73;;
10144;SDS011;5113;41.822;23.564;2022-11-20T16:52:30;8.10;;;4.13;;
10144;SDS011;5113;41.822;23.564;2022-11-20T16:55:37;15.37;;;7.50;;
10144;SDS011;5113;41.822;23.564;2022-11-20T16:58:45;14.13;;;6.63;;
10144;SDS011;5113;41.822;23.564;2022-11-20T17:01:52;5.53;;;3.70;;
10144;SDS011;5113;41.822;23.564;2022-11-20T17:04:58;9.83;;;4.03;;
10144;SDS011;5113;41.822;23.564;2022-11-20T17:08:04;6.33;;;3.93;;
10144;SDS011;5113;41.822;23.564;2022-11-20T17:11:11;13.70;;;9.03;;
10144;SDS011;5113;41.822;23.564;2022-11-20T17:14:20;9.10;;;3.63;;
10144;SDS011;5113;41.822;23.564;2022-11-20T17:17:27;5.63;;;4.20;;
10144;SDS011;5113;41.822;23.564;2022-11-20T17:20:33;10.13;;;4.50;;
10144;SDS011;5113;41.822;23.564;2022-11-20T17:23:40;5.10;;;3.10;;
10144;SDS011;5113;41.822;23.564;2022-11-20T17:26:48;8.07;;;3.50;;
10144;SDS011;5113;41.822;23.564;2022-11-20T17:29:55;4.57;;;3.57;;
10144;SDS011;5113;41.822;23.564;2022-11-20T17:33:02;9.40;;;5.03;;
10144;SDS011;5113;41.822;23.564;2022-11-20T17:36:10;5.53;;;3.60;;
10144;SDS011;5113;41.822;23.564;2022-11-20T17:39:17;8.90;;;4.93;;
10144;SDS011;5113;41.822;23.564;2022-11-20T17:42:24;11.43;;;5.30;;
10144;SDS011;5113;41.822;23.564;2022-11-20T17:45:41;37.93;;;21.33;;
10144;SDS011;5113;41.822;23.564;2022-11-20T17:48:49;17.80;;;8.63;;
10144;SDS011;5113;41.822;23.564;2022-11-20T17:51:55;16.00;;;6.33;;
10144;SDS011;5113;41.822;23.564;2022-11-20T17:55:01;12.87;;;5.67;;
10144;SDS011;5113;41.822;23.564;2022-11-20T17:58:07;6.93;;;3.90;;
10144;SDS011;5113;41.822;23.564;2022-11-20T18:01:14;10.57;;;5.70;;
10144;SDS011;5113;41.822;23.564;2022-11-20T18:04:22;7.17;;;3.13;;
10144;SDS011;5113;41.822;23.564;2022-11-20T18:07:29;10.70;;;5.43;;
10144;SDS011;5113;41.822;23.564;2022-11-20T18:10:40;5.07;;;3.77;;
10144;SDS011;5113;41.822;23.564;2022-11-20T18:13:47;14.73;;;6.53;;
10144;SDS011;5113;41.822;23.564;2022-11-20T18:17:14;8.57;;;4.37;;
10144;SDS011;5113;41.822;23.564;2022-11-20T18:20:20;6.87;;;5.13;;
10144;SDS011;5113;41.822;23.564;2022-11-20T18:23:39;10.73;;;5.67;;
10144;SDS011;5113;41.822;23.564;2022-11-20T18:26:45;6.20;;;4.47;;
10144;SDS011;5113;41.822;23.564;2022-11-20T18:29:52;17.27;;;9.47;;
10144;SDS011;5113;41.822;23.564;2022-11-20T18:33:00;20.43;;;10.20;;
10144;SDS011;5113;41.822;23.564;2022-11-20T18:36:10;15.93;;;8.77;;
10144;SDS011;5113;41.822;23.564;2022-11-20T18:39:16;11.50;;;8.07;;
10144;SDS011;5113;41.822;23.564;2022-11-20T18:42:22;10.67;;;6.70;;
10144;SDS011;5113;41.822;23.564;2022-11-20T18:45:46;13.43;;;7.40;;
10144;SDS011;5113;41.822;23.564;2022-11-20T18:48:53;23.60;;;11.87;;
10144;SDS011;5113;41.822;23.564;2022-11-20T18:51:59;22.53;;;11.27;;
10144;SDS011;5113;41.822;23.564;2022-11-20T18:55:24;16.27;;;10.00;;
10144;SDS011;5113;41.822;23.564;2022-11-20T18:58:30;19.50;;;8.67;;
10144;SDS011;5113;41.822;23.564;2022-11-20T19:01:36;36.90;;;14.77;;
10144;SDS011;5113;41.822;23.564;2022-11-20T19:04:44;12.47;;;8.00;;
10144;SDS011;5113;41.822;23.564;2022-11-20T19:07:51;42.83;;;24.33;;